createdAt,value
2023-05-14T00:00:22.318Z,230.49
2023-05-14T00:01:22.175Z,237.28
2023-05-14T00:02:22.205Z,242.31
2023-05-14T00:03:22.307Z,247.11
2023-05-14T00:04:22.310Z,248.38
2023-05-14T00:05:22.217Z,250.47
2023-05-14T00:06:22.244Z,250.16
2023-05-14T00:07:22.256Z,249.91
2023-05-14T00:08:22.219Z,248.34
2023-05-14T00:09:22.264Z,244.95
2023-05-14T00:10:22.387Z,238.60
2023-05-14T00:11:22.350Z,239.05
2023-05-14T00:12:22.401Z,240.34
2023-05-14T00:13:22.489Z,238.21
2023-05-14T00:14:22.467Z,237.21
2023-05-14T00:15:22.407Z,238.12
2023-05-14T00:16:22.527Z,239.61
2023-05-14T00:17:22.553Z,241.56
2023-05-14T00:18:22.597Z,241.54
2023-05-14T00:19:22.660Z,238.84
2023-05-14T00:20:23.451Z,240.71
2023-05-14T00:21:22.726Z,240.69
2023-05-14T00:22:22.722Z,241.36
2023-05-14T00:23:22.742Z,240.04
2023-05-14T00:24:23.091Z,234.99
2023-05-14T00:25:22.739Z,234.61
2023-05-14T00:26:22.750Z,234.45
2023-05-14T00:27:23.672Z,235.63
2023-05-14T00:28:22.753Z,231.32
2023-05-14T00:29:22.819Z,229.78
2023-05-14T00:30:22.981Z,229.63
2023-05-14T00:31:22.921Z,227.71
2023-05-14T00:32:23.087Z,230.28
2023-05-14T00:33:22.952Z,230.20
2023-05-14T00:34:22.955Z,231.13
2023-05-14T00:35:23.034Z,230.77
2023-05-14T00:36:23.039Z,232.02
2023-05-14T00:37:23.071Z,233.83
2023-05-14T00:38:23.178Z,234.82
2023-05-14T00:39:23.141Z,234.43
2023-05-14T00:40:23.412Z,233.14
2023-05-14T00:41:23.215Z,232.06
2023-05-14T00:42:23.160Z,229.81
2023-05-14T00:43:23.183Z,229.53
2023-05-14T00:44:23.277Z,229.72
2023-05-14T00:45:23.248Z,229.35
2023-05-14T00:46:23.464Z,228.45
2023-05-14T00:47:23.386Z,225.28
2023-05-14T00:48:23.416Z,226.26
2023-05-14T00:49:23.419Z,222.55
2023-05-14T00:50:23.904Z,221.15
2023-05-14T00:51:23.480Z,219.05
2023-05-14T00:52:23.502Z,213.67
2023-05-14T00:53:23.556Z,213.39
2023-05-14T00:54:23.658Z,214.61
2023-05-14T00:55:23.606Z,215.11
2023-05-14T00:56:23.622Z,215.03
2023-05-14T00:57:23.652Z,214.70
2023-05-14T00:58:23.630Z,212.30
2023-05-14T00:59:23.694Z,209.57
2023-05-14T01:00:23.935Z,209.52
2023-05-14T01:01:23.766Z,209.38
2023-05-14T01:02:23.763Z,203.63
2023-05-14T01:03:23.810Z,201.93
2023-05-14T01:04:23.825Z,201.65
2023-05-14T01:05:23.788Z,201.55
2023-05-14T01:06:23.827Z,202.68
2023-05-14T01:07:23.845Z,204.07
2023-05-14T01:08:23.856Z,200.94
2023-05-14T01:09:23.878Z,199.16
2023-05-14T01:10:24.127Z,200.28
2023-05-14T01:11:23.879Z,201.82
2023-05-14T01:12:23.900Z,201.23
2023-05-14T01:13:23.874Z,203.55
2023-05-14T01:14:23.920Z,202.29
2023-05-14T01:15:24.009Z,197.89
2023-05-14T01:16:23.970Z,194.57
2023-05-14T01:17:24.292Z,194.23
2023-05-14T01:18:24.068Z,195.61
2023-05-14T01:19:24.032Z,198.50
2023-05-14T01:20:24.347Z,199.72
2023-05-14T01:21:24.058Z,201.82
2023-05-14T01:22:24.059Z,204.91
2023-05-14T01:23:24.059Z,204.40
2023-05-14T01:24:24.155Z,202.38
2023-05-14T01:25:24.171Z,202.52
2023-05-14T01:26:24.201Z,200.07
2023-05-14T01:27:24.723Z,199.81
2023-05-14T01:28:24.255Z,198.93
2023-05-14T01:29:24.337Z,203.32
2023-05-14T01:30:24.677Z,207.68
2023-05-14T01:31:24.323Z,212.75
2023-05-14T01:32:24.343Z,218.86
2023-05-14T01:33:24.331Z,225.54
2023-05-14T01:34:24.332Z,230.17
2023-05-14T01:35:24.394Z,232.45
2023-05-14T01:36:24.370Z,232.94
2023-05-14T01:37:24.388Z,231.90
2023-05-14T01:38:24.416Z,232.41
2023-05-14T01:39:25.420Z,232.45
2023-05-14T01:40:24.816Z,233.26
2023-05-14T01:41:24.568Z,234.48
2023-05-14T01:42:24.599Z,234.12
2023-05-14T01:43:24.668Z,232.74
2023-05-14T01:44:24.695Z,232.60
2023-05-14T01:45:24.738Z,233.75
2023-05-14T01:46:24.722Z,234.57
2023-05-14T01:47:24.799Z,236.33
2023-05-14T01:48:24.780Z,237.99
2023-05-14T01:49:24.847Z,239.30
2023-05-14T01:50:25.044Z,231.59
2023-05-14T01:51:24.894Z,230.05
2023-05-14T01:52:24.933Z,223.04
2023-05-14T01:53:24.915Z,220.25
2023-05-14T01:54:24.944Z,217.42
2023-05-14T01:55:24.985Z,215.58
2023-05-14T01:56:25.000Z,214.85
2023-05-14T01:57:25.076Z,213.32
2023-05-14T01:58:25.073Z,213.39
2023-05-14T01:59:25.105Z,215.10
2023-05-14T02:00:25.369Z,213.58
2023-05-14T02:01:25.156Z,215.09
2023-05-14T02:02:25.203Z,215.25
2023-05-14T02:03:25.511Z,216.27
2023-05-14T02:04:25.174Z,217.88
2023-05-14T02:05:25.198Z,223.38
2023-05-14T02:06:25.222Z,225.46
2023-05-14T02:07:25.272Z,225.53
2023-05-14T02:08:25.305Z,226.15
2023-05-14T02:09:25.429Z,228.03
2023-05-14T02:10:25.585Z,229.04
2023-05-14T02:11:25.445Z,228.58
2023-05-14T02:12:25.490Z,227.19
2023-05-14T02:13:25.514Z,229.15
2023-05-14T02:14:26.292Z,230.94
2023-05-14T02:15:26.001Z,235.29
2023-05-14T02:16:25.825Z,234.37
2023-05-14T02:17:25.754Z,237.02
2023-05-14T02:18:25.858Z,235.99
2023-05-14T02:19:25.760Z,235.19
2023-05-14T02:20:25.964Z,235.19
2023-05-14T02:21:25.772Z,234.88
2023-05-14T02:22:25.768Z,235.70
2023-05-14T02:23:37.949Z,237.80
2023-05-14T02:24:27.608Z,237.87
2023-05-14T02:25:25.841Z,238.15
2023-05-14T02:26:25.813Z,239.04
2023-05-14T02:27:25.772Z,240.20
2023-05-14T02:28:25.782Z,241.15
2023-05-14T02:29:25.746Z,240.97
2023-05-14T02:30:25.900Z,239.91
2023-05-14T02:31:25.819Z,239.18
2023-05-14T02:32:25.788Z,240.77
2023-05-14T02:33:25.800Z,241.81
2023-05-14T02:34:25.794Z,242.36
2023-05-14T02:35:25.852Z,244.23
2023-05-14T02:36:25.902Z,246.21
2023-05-14T02:37:25.918Z,245.01
2023-05-14T02:38:25.984Z,243.04
2023-05-14T02:39:26.017Z,242.55
2023-05-14T02:40:26.171Z,240.14
2023-05-14T02:41:26.036Z,234.02
2023-05-14T02:42:26.107Z,231.78
2023-05-14T02:43:26.145Z,228.83
2023-05-14T02:44:26.145Z,226.94
2023-05-14T02:45:26.143Z,227.95
2023-05-14T02:46:26.136Z,225.51
2023-05-14T02:47:26.214Z,222.52
2023-05-14T02:48:26.207Z,216.35
2023-05-14T02:49:26.282Z,214.27
2023-05-14T02:50:26.424Z,213.51
2023-05-14T02:51:26.303Z,211.56
2023-05-14T02:52:26.386Z,211.35
2023-05-14T02:53:26.409Z,211.69
2023-05-14T02:54:26.506Z,212.30
2023-05-14T02:55:26.624Z,212.36
2023-05-14T02:56:26.586Z,211.87
2023-05-14T02:57:26.618Z,212.39
2023-05-14T02:58:28.450Z,212.20
2023-05-14T02:59:26.731Z,212.27
2023-05-14T03:00:26.819Z,211.38
2023-05-14T03:01:26.868Z,209.48
2023-05-14T03:02:26.967Z,206.24
2023-05-14T03:03:26.910Z,202.82
2023-05-14T03:04:26.923Z,203.58
2023-05-14T03:05:26.991Z,206.35
2023-05-14T03:06:27.094Z,207.03
2023-05-14T03:07:27.073Z,207.30
2023-05-14T03:08:27.137Z,208.16
2023-05-14T03:09:27.184Z,209.31
2023-05-14T03:10:27.264Z,210.65
2023-05-14T03:11:34.888Z,212.06
2023-05-14T03:12:27.331Z,212.09
2023-05-14T03:13:27.236Z,212.52
2023-05-14T03:14:27.261Z,214.02
2023-05-14T03:15:27.234Z,216.42
2023-05-14T03:16:27.285Z,220.34
2023-05-14T03:17:27.235Z,222.46
2023-05-14T03:18:27.234Z,224.32
2023-05-14T03:19:27.204Z,223.27
2023-05-14T03:20:27.210Z,223.96
2023-05-14T03:21:27.163Z,223.58
2023-05-14T03:22:27.164Z,223.30
2023-05-14T03:23:27.181Z,223.92
2023-05-14T03:24:27.219Z,223.39
2023-05-14T03:25:27.183Z,221.95
2023-05-14T03:26:27.226Z,219.13
2023-05-14T03:27:27.260Z,218.84
2023-05-14T03:28:27.294Z,219.77
2023-05-14T03:29:27.388Z,215.19
2023-05-14T03:30:27.448Z,213.09
2023-05-14T03:31:27.517Z,213.05
2023-05-14T03:32:27.490Z,213.71
2023-05-14T03:33:27.482Z,213.62
2023-05-14T03:34:27.526Z,210.33
2023-05-14T03:35:27.545Z,209.81
2023-05-14T03:36:27.536Z,210.26
2023-05-14T03:37:27.592Z,209.33
2023-05-14T03:38:27.619Z,209.50
2023-05-14T03:39:27.651Z,215.93
2023-05-14T03:40:27.631Z,217.51
2023-05-14T03:41:27.676Z,212.65
2023-05-14T03:42:27.727Z,207.43
2023-05-14T03:43:27.744Z,201.91
2023-05-14T03:44:27.788Z,200.65
2023-05-14T03:45:27.834Z,199.99
2023-05-14T03:46:27.786Z,199.70
2023-05-14T03:47:27.855Z,199.86
2023-05-14T03:48:28.109Z,207.11
2023-05-14T03:49:27.980Z,212.76
2023-05-14T03:50:28.009Z,216.53
2023-05-14T03:51:28.057Z,222.06
2023-05-14T03:52:28.137Z,219.62
2023-05-14T03:53:28.167Z,219.49
2023-05-14T03:54:28.230Z,219.08
2023-05-14T03:55:28.263Z,218.25
2023-05-14T03:56:28.344Z,219.81
2023-05-14T03:57:28.370Z,229.53
2023-05-14T03:58:28.398Z,232.86
2023-05-14T03:59:28.424Z,227.92
2023-05-14T04:00:36.046Z,226.74
2023-05-14T04:01:28.455Z,226.78
2023-05-14T04:02:28.528Z,226.93
2023-05-14T04:03:28.546Z,227.06
2023-05-14T04:04:28.549Z,226.05
2023-05-14T04:05:28.419Z,226.50
2023-05-14T04:06:28.412Z,225.46
2023-05-14T04:07:28.411Z,220.83
2023-05-14T04:08:28.402Z,223.58
2023-05-14T04:09:28.380Z,227.68
2023-05-14T04:10:28.387Z,233.15
2023-05-14T04:11:28.381Z,237.61
2023-05-14T04:12:28.356Z,236.70
2023-05-14T04:13:28.363Z,236.38
2023-05-14T04:14:28.417Z,235.28
2023-05-14T04:15:28.514Z,233.00
2023-05-14T04:16:28.960Z,231.99
2023-05-14T04:17:28.654Z,230.24
2023-05-14T04:18:28.673Z,230.17
2023-05-14T04:19:29.067Z,231.11
2023-05-14T04:20:28.718Z,225.13
2023-05-14T04:21:28.809Z,222.96
2023-05-14T04:22:28.782Z,222.82
2023-05-14T04:23:28.839Z,223.94
2023-05-14T04:24:28.851Z,220.09
2023-05-14T04:25:28.891Z,212.94
2023-05-14T04:26:28.972Z,211.25
2023-05-14T04:27:29.025Z,213.50
2023-05-14T04:28:29.136Z,213.85
2023-05-14T04:29:29.149Z,213.40
2023-05-14T04:30:29.143Z,213.38
2023-05-14T04:31:29.145Z,213.95
2023-05-14T04:32:29.173Z,216.35
2023-05-14T04:33:29.240Z,215.75
2023-05-14T04:34:29.215Z,216.24
2023-05-14T04:35:29.238Z,218.69
2023-05-14T04:36:29.384Z,217.59
2023-05-14T04:37:29.235Z,217.71
2023-05-14T04:38:29.281Z,214.47
2023-05-14T04:39:29.305Z,214.39
2023-05-14T04:40:29.268Z,212.67
2023-05-14T04:41:29.295Z,207.50
2023-05-14T04:42:29.365Z,206.66
2023-05-14T04:43:29.379Z,208.75
2023-05-14T04:44:29.385Z,210.33
2023-05-14T04:45:29.437Z,211.06
2023-05-14T04:46:29.685Z,214.43
2023-05-14T04:47:29.649Z,219.37
2023-05-14T04:48:29.621Z,221.12
2023-05-14T04:49:29.677Z,222.65
2023-05-14T04:50:29.693Z,213.52
2023-05-14T04:51:29.734Z,209.88
2023-05-14T04:52:29.697Z,207.57
2023-05-14T04:53:29.747Z,203.97
2023-05-14T04:54:29.853Z,194.74
2023-05-14T04:55:29.809Z,189.37
2023-05-14T04:56:29.886Z,185.46
2023-05-14T04:57:29.965Z,186.54
2023-05-14T04:58:30.783Z,189.76
2023-05-14T04:59:30.298Z,196.17
2023-05-14T05:00:30.002Z,198.71
2023-05-14T05:01:30.036Z,204.37
2023-05-14T05:02:30.053Z,204.38
2023-05-14T05:03:30.120Z,206.07
2023-05-14T05:04:30.147Z,202.83
2023-05-14T05:05:30.200Z,199.48
2023-05-14T05:06:30.243Z,198.46
2023-05-14T05:07:30.253Z,199.39
2023-05-14T05:08:30.272Z,200.48
2023-05-14T05:09:30.282Z,203.91
2023-05-14T05:10:30.346Z,206.79
2023-05-14T05:11:30.375Z,209.41
2023-05-14T05:12:30.385Z,209.18
2023-05-14T05:13:30.360Z,210.07
2023-05-14T05:14:30.528Z,205.08
2023-05-14T05:15:30.395Z,203.61
2023-05-14T05:16:30.451Z,202.79
2023-05-14T05:17:30.555Z,200.26
2023-05-14T05:18:30.612Z,202.15
2023-05-14T05:19:42.410Z,206.70
2023-05-14T05:20:31.590Z,206.74
2023-05-14T05:21:30.621Z,206.87
2023-05-14T05:22:30.572Z,209.37
2023-05-14T05:23:30.585Z,224.09
2023-05-14T05:24:30.591Z,236.63
2023-05-14T05:25:30.558Z,224.33
2023-05-14T05:26:30.549Z,218.30
2023-05-14T05:27:30.902Z,216.03
2023-05-14T05:28:30.575Z,213.42
2023-05-14T05:29:30.617Z,212.53
2023-05-14T05:30:30.681Z,212.85
2023-05-14T05:31:30.754Z,207.50
2023-05-14T05:32:30.827Z,203.41
2023-05-14T05:33:30.846Z,198.22
2023-05-14T05:34:30.869Z,192.37
2023-05-14T05:35:30.862Z,186.21
2023-05-14T05:36:30.904Z,181.85
2023-05-14T05:37:30.972Z,180.39
2023-05-14T05:38:30.933Z,206.31
2023-05-14T05:39:31.011Z,206.62
2023-05-14T05:40:31.026Z,204.83
2023-05-14T05:41:31.108Z,204.58
2023-05-14T05:42:31.120Z,195.55
2023-05-14T05:43:31.221Z,183.90
2023-05-14T05:44:31.242Z,179.90
2023-05-14T05:45:31.213Z,174.02
2023-05-14T05:46:31.293Z,173.62
2023-05-14T05:47:31.386Z,177.99
2023-05-14T05:48:31.416Z,179.43
2023-05-14T05:49:31.465Z,183.17
2023-05-14T05:50:31.470Z,184.80
2023-05-14T05:51:31.526Z,186.44
2023-05-14T05:52:31.635Z,188.12
2023-05-14T05:53:31.634Z,187.69
2023-05-14T05:54:31.786Z,199.28
2023-05-14T05:55:31.774Z,199.00
2023-05-14T05:56:31.773Z,195.35
2023-05-14T05:57:31.820Z,194.68
2023-05-14T05:58:31.865Z,197.80
2023-05-14T05:59:31.856Z,199.81
2023-05-14T06:00:31.899Z,200.62
2023-05-14T06:01:31.936Z,205.64
2023-05-14T06:02:32.239Z,206.68
2023-05-14T06:03:32.001Z,211.42
2023-05-14T06:04:32.046Z,211.67
2023-05-14T06:05:32.057Z,209.51
2023-05-14T06:06:32.091Z,205.84
2023-05-14T06:07:32.101Z,205.63
2023-05-14T06:08:32.179Z,208.94
2023-05-14T06:09:32.155Z,212.92
2023-05-14T06:10:32.173Z,210.37
2023-05-14T06:11:32.219Z,206.06
2023-05-14T06:12:32.233Z,197.15
2023-05-14T06:13:32.253Z,212.28
2023-05-14T06:14:32.353Z,211.95
2023-05-14T06:15:32.366Z,208.31
2023-05-14T06:16:32.495Z,201.71
2023-05-14T06:17:32.512Z,195.41
2023-05-14T06:18:32.540Z,187.74
2023-05-14T06:19:32.572Z,184.32
2023-05-14T06:20:32.601Z,167.24
2023-05-14T06:21:32.642Z,162.99
2023-05-14T06:22:32.637Z,161.29
2023-05-14T06:23:32.686Z,164.21
2023-05-14T06:24:32.750Z,160.87
2023-05-14T06:25:32.748Z,157.74
2023-05-14T06:26:32.798Z,156.42
2023-05-14T06:27:32.861Z,157.83
2023-05-14T06:28:32.909Z,162.05
2023-05-14T06:29:32.972Z,171.95
2023-05-14T06:30:33.035Z,174.63
2023-05-14T06:31:33.098Z,174.69
2023-05-14T06:32:33.134Z,172.15
2023-05-14T06:33:33.085Z,169.14
2023-05-14T06:34:33.100Z,167.97
2023-05-14T06:35:33.091Z,167.29
2023-05-14T06:36:33.111Z,167.09
2023-05-14T06:37:33.164Z,167.59
2023-05-14T06:38:33.200Z,171.99
2023-05-14T06:39:33.309Z,176.27
2023-05-14T06:40:33.244Z,173.25
2023-05-14T06:41:33.425Z,171.71
2023-05-14T06:42:33.347Z,168.08
2023-05-14T06:43:33.429Z,168.12
2023-05-14T06:44:33.470Z,168.02
2023-05-14T06:45:33.498Z,166.99
2023-05-14T06:46:33.499Z,166.89
2023-05-14T06:47:33.617Z,164.34
2023-05-14T06:48:33.563Z,163.37
2023-05-14T06:49:33.619Z,164.15
2023-05-14T06:50:33.591Z,164.84
2023-05-14T06:51:33.575Z,163.04
2023-05-14T06:52:33.574Z,162.59
2023-05-14T06:53:33.583Z,166.80
2023-05-14T06:54:33.600Z,165.18
2023-05-14T06:55:33.633Z,161.92
2023-05-14T06:56:33.659Z,159.17
2023-05-14T06:57:33.630Z,155.93
2023-05-14T06:58:33.671Z,154.90
2023-05-14T06:59:33.721Z,154.09
2023-05-14T07:00:33.729Z,156.99
2023-05-14T07:01:33.826Z,158.56
2023-05-14T07:02:33.934Z,161.13
2023-05-14T07:03:33.917Z,153.58
2023-05-14T07:04:33.883Z,146.72
2023-05-14T07:05:33.849Z,143.68
2023-05-14T07:06:33.832Z,142.19
2023-05-14T07:07:33.908Z,142.68
2023-05-14T07:08:33.889Z,139.18
2023-05-14T07:09:33.957Z,138.26
2023-05-14T07:10:33.947Z,140.08
2023-05-14T07:11:33.934Z,142.03
2023-05-14T07:12:33.954Z,140.33
2023-05-14T07:13:33.980Z,141.01
2023-05-14T07:14:34.048Z,139.03
2023-05-14T07:15:34.003Z,155.52
2023-05-14T07:16:34.129Z,150.17
2023-05-14T07:17:34.087Z,140.77
2023-05-14T07:18:34.104Z,135.39
2023-05-14T07:19:34.132Z,130.08
2023-05-14T07:20:34.120Z,133.39
2023-05-14T07:21:34.205Z,134.27
2023-05-14T07:22:34.269Z,135.16
2023-05-14T07:23:34.357Z,138.57
2023-05-14T07:24:34.380Z,139.62
2023-05-14T07:25:34.444Z,138.06
2023-05-14T07:26:34.484Z,136.79
2023-05-14T07:27:34.548Z,140.37
2023-05-14T07:28:34.545Z,143.05
2023-05-14T07:29:34.667Z,143.97
2023-05-14T07:30:34.687Z,150.96
2023-05-14T07:31:34.821Z,151.72
2023-05-14T07:32:34.808Z,150.56
2023-05-14T07:33:34.732Z,150.98
2023-05-14T07:34:34.834Z,151.90
2023-05-14T07:35:34.865Z,154.64
2023-05-14T07:36:35.796Z,156.57
2023-05-14T07:37:34.886Z,159.16
2023-05-14T07:38:34.876Z,158.12
2023-05-14T07:39:34.928Z,148.25
2023-05-14T07:40:35.008Z,144.49
2023-05-14T07:41:35.065Z,145.55
2023-05-14T07:42:36.931Z,149.71
2023-05-14T07:43:35.179Z,157.63
2023-05-14T07:44:35.128Z,161.05
2023-05-14T07:45:35.134Z,160.49
2023-05-14T07:46:35.155Z,158.14
2023-05-14T07:47:35.235Z,158.30
2023-05-14T07:48:35.204Z,161.70
2023-05-14T07:49:35.306Z,158.85
2023-05-14T07:50:35.247Z,154.37
2023-05-14T07:51:35.278Z,156.24
2023-05-14T07:52:35.286Z,158.71
2023-05-14T07:53:35.271Z,158.19
2023-05-14T07:54:35.294Z,158.71
2023-05-14T07:55:35.382Z,160.96
2023-05-14T07:56:35.305Z,159.75
2023-05-14T07:57:35.296Z,165.63
2023-05-14T07:58:35.428Z,162.25
2023-05-14T07:59:35.539Z,153.91
2023-05-14T08:00:35.550Z,147.27
2023-05-14T08:01:37.108Z,144.75
2023-05-14T08:02:35.672Z,148.30
2023-05-14T08:03:35.636Z,164.47
2023-05-14T08:04:35.637Z,166.14
2023-05-14T08:05:35.550Z,161.20
2023-05-14T08:06:35.561Z,145.91
2023-05-14T08:07:35.567Z,141.26
2023-05-14T08:08:35.552Z,142.18
2023-05-14T08:09:35.563Z,150.18
2023-05-14T08:10:35.557Z,145.35
2023-05-14T08:11:35.504Z,141.52
2023-05-14T08:12:35.506Z,136.17
2023-05-14T08:13:35.469Z,129.99
2023-05-14T08:14:35.593Z,122.05
2023-05-14T08:15:35.464Z,119.98
2023-05-14T08:16:35.511Z,124.96
2023-05-14T08:17:35.482Z,117.74
2023-05-14T08:18:35.438Z,114.86
2023-05-14T08:19:35.460Z,113.20
2023-05-14T08:20:35.467Z,113.60
2023-05-14T08:21:35.452Z,116.02
2023-05-14T08:22:35.436Z,114.00
2023-05-14T08:23:35.489Z,103.83
2023-05-14T08:24:35.465Z,108.87
2023-05-14T08:25:35.417Z,110.70
2023-05-14T08:26:35.415Z,99.77
2023-05-14T08:27:35.437Z,101.33
2023-05-14T08:28:35.400Z,102.35
2023-05-14T08:29:35.432Z,94.59
2023-05-14T08:30:35.415Z,93.13
2023-05-14T08:31:35.427Z,99.42
2023-05-14T08:32:35.429Z,99.51
2023-05-14T08:33:35.381Z,94.92
2023-05-14T08:34:35.371Z,84.32
2023-05-14T08:35:35.357Z,86.47
2023-05-14T08:36:35.367Z,92.74
2023-05-14T08:37:35.303Z,97.53
2023-05-14T08:38:35.342Z,100.80
2023-05-14T08:39:35.357Z,95.74
2023-05-14T08:40:35.304Z,90.35
2023-05-14T08:41:35.313Z,79.69
2023-05-14T08:42:35.307Z,78.20
2023-05-14T08:43:35.302Z,62.25
2023-05-14T08:44:35.358Z,58.83
2023-05-14T08:45:35.279Z,48.58
2023-05-14T08:46:35.326Z,40.97
2023-05-14T08:47:35.340Z,42.99
2023-05-14T08:48:35.666Z,52.05
2023-05-14T08:49:35.342Z,66.34
2023-05-14T08:50:35.253Z,53.51
2023-05-14T08:51:35.255Z,45.32
2023-05-14T08:52:35.245Z,41.84
2023-05-14T08:53:35.228Z,40.54
2023-05-14T08:54:35.247Z,25.00
2023-05-14T08:55:35.247Z,22.00
2023-05-14T08:56:35.172Z,14.47
2023-05-14T08:57:35.201Z,5.99
2023-05-14T08:58:35.290Z,5.02
2023-05-14T08:59:35.320Z,7.77
2023-05-14T09:00:35.384Z,12.15
2023-05-14T09:01:35.450Z,23.01
2023-05-14T09:02:35.457Z,22.51
2023-05-14T09:03:35.545Z,25.27
2023-05-14T09:04:35.525Z,30.56
2023-05-14T09:05:35.524Z,24.65
2023-05-14T09:06:35.524Z,24.19
2023-05-14T09:07:35.661Z,18.61
2023-05-14T09:08:35.602Z,32.99
2023-05-14T09:09:35.683Z,31.91
2023-05-14T09:10:35.656Z,26.40
2023-05-14T09:11:35.685Z,25.57
2023-05-14T09:12:36.768Z,24.73
2023-05-14T09:13:35.837Z,25.00
2023-05-14T09:14:35.846Z,25.00
2023-05-14T09:15:35.924Z,23.54
2023-05-14T09:16:35.991Z,25.10
2023-05-14T09:17:36.008Z,25.00
2023-05-14T09:18:36.039Z,35.05
2023-05-14T09:19:36.036Z,40.52
2023-05-14T09:20:36.060Z,40.02
2023-05-14T09:21:36.091Z,33.70
2023-05-14T09:22:36.105Z,37.64
2023-05-14T09:23:36.183Z,61.43
2023-05-14T09:24:36.192Z,62.05
2023-05-14T09:25:36.218Z,54.46
2023-05-14T09:26:36.274Z,60.89
2023-05-14T09:27:36.320Z,62.51
2023-05-14T09:28:36.358Z,47.71
2023-05-14T09:29:36.430Z,47.99
2023-05-14T09:30:36.434Z,50.55
2023-05-14T09:31:36.503Z,52.88
2023-05-14T09:32:36.515Z,56.06
2023-05-14T09:33:36.565Z,57.68
2023-05-14T09:34:36.584Z,56.80
2023-05-14T09:35:36.622Z,50.82
2023-05-14T09:36:36.656Z,48.52
2023-05-14T09:37:36.721Z,55.81
2023-05-14T09:38:36.734Z,58.44
2023-05-14T09:39:36.832Z,52.95
2023-05-14T09:40:36.791Z,50.94
2023-05-14T09:41:36.863Z,47.58
2023-05-14T09:42:36.884Z,47.97
2023-05-14T09:43:36.903Z,56.75
2023-05-14T09:44:36.960Z,54.38
2023-05-14T09:45:36.945Z,48.23
2023-05-14T09:46:37.015Z,29.48
2023-05-14T09:47:37.195Z,27.80
2023-05-14T09:48:37.211Z,42.61
2023-05-14T09:49:37.203Z,47.28
2023-05-14T09:50:37.190Z,59.94
2023-05-14T09:51:37.263Z,60.09
2023-05-14T09:52:37.371Z,50.28
2023-05-14T09:53:37.345Z,48.58
2023-05-14T09:54:37.420Z,44.86
2023-05-14T09:55:37.462Z,47.84
2023-05-14T09:56:37.527Z,45.56
2023-05-14T09:57:37.554Z,46.98
2023-05-14T09:58:37.581Z,42.34
2023-05-14T09:59:37.717Z,41.90
2023-05-14T10:00:37.733Z,44.36
2023-05-14T10:01:37.909Z,41.29
2023-05-14T10:02:38.204Z,39.95
2023-05-14T10:03:38.270Z,43.30
2023-05-14T10:04:38.015Z,40.28
2023-05-14T10:05:37.967Z,41.69
2023-05-14T10:06:38.006Z,62.15
2023-05-14T10:07:38.039Z,67.48
2023-05-14T10:08:38.068Z,67.51
2023-05-14T10:09:38.101Z,73.55
2023-05-14T10:10:38.138Z,71.95
2023-05-14T10:11:38.239Z,77.62
2023-05-14T10:12:38.244Z,64.77
2023-05-14T10:13:38.270Z,54.85
2023-05-14T10:14:38.362Z,54.62
2023-05-14T10:15:38.324Z,48.65
2023-05-14T10:16:38.484Z,47.61
2023-05-14T10:17:38.420Z,49.13
2023-05-14T10:18:38.430Z,49.89
2023-05-14T10:19:38.468Z,45.72
2023-05-14T10:20:38.490Z,63.69
2023-05-14T10:21:38.533Z,68.16
2023-05-14T10:22:38.551Z,56.30
2023-05-14T10:23:38.599Z,52.30
2023-05-14T10:24:38.613Z,41.93
2023-05-14T10:25:38.635Z,36.76
2023-05-14T10:26:38.671Z,47.93
2023-05-14T10:27:38.727Z,52.89
2023-05-14T10:28:38.788Z,51.71
2023-05-14T10:29:38.811Z,45.79
2023-05-14T10:30:38.820Z,49.27
2023-05-14T10:31:38.921Z,52.32
2023-05-14T10:32:38.892Z,32.69
2023-05-14T10:33:38.860Z,28.71
2023-05-14T10:34:38.981Z,48.77
2023-05-14T10:35:38.916Z,49.75
2023-05-14T10:36:38.996Z,40.17
2023-05-14T10:37:39.004Z,37.54
2023-05-14T10:38:39.087Z,41.10
2023-05-14T10:39:39.566Z,49.02
2023-05-14T10:40:39.077Z,60.32
2023-05-14T10:41:39.161Z,70.89
2023-05-14T10:42:39.183Z,72.80
2023-05-14T10:43:39.194Z,70.24
2023-05-14T10:44:39.262Z,69.35
2023-05-14T10:45:39.281Z,65.76
2023-05-14T10:46:39.369Z,53.10
2023-05-14T10:47:39.391Z,62.70
2023-05-14T10:48:39.339Z,67.70
2023-05-14T10:49:43.296Z,68.52
2023-05-14T10:50:39.433Z,65.92
2023-05-14T10:51:39.516Z,54.83
2023-05-14T10:52:39.428Z,51.27
2023-05-14T10:53:39.347Z,36.33
2023-05-14T10:54:39.346Z,39.90
2023-05-14T10:55:39.341Z,49.64
2023-05-14T10:56:39.329Z,55.76
2023-05-14T10:57:39.351Z,65.60
2023-05-14T10:58:39.308Z,72.71
2023-05-14T10:59:39.386Z,74.97
2023-05-14T11:00:39.300Z,77.48
2023-05-14T11:01:39.293Z,79.46
2023-05-14T11:02:39.376Z,66.68
2023-05-14T11:03:39.294Z,64.54
2023-05-14T11:04:39.309Z,65.61
2023-05-14T11:05:39.296Z,74.10
2023-05-14T11:06:39.271Z,73.83
2023-05-14T11:07:39.289Z,69.64
2023-05-14T11:08:39.319Z,60.76
2023-05-14T11:09:39.368Z,58.12
2023-05-14T11:10:39.457Z,66.77
2023-05-14T11:11:39.435Z,63.68
2023-05-14T11:12:39.452Z,74.10
2023-05-14T11:13:39.540Z,77.74
2023-05-14T11:14:39.532Z,89.54
2023-05-14T11:15:39.590Z,78.71
2023-05-14T11:16:39.669Z,67.19
2023-05-14T11:17:39.706Z,65.39
2023-05-14T11:18:39.737Z,62.43
2023-05-14T11:19:39.701Z,63.95
2023-05-14T11:20:39.747Z,66.68
2023-05-14T11:21:39.813Z,76.28
2023-05-14T11:22:39.794Z,64.90
2023-05-14T11:23:39.811Z,70.12
2023-05-14T11:24:39.869Z,67.88
2023-05-14T11:25:39.946Z,66.25
2023-05-14T11:26:39.954Z,76.13
2023-05-14T11:27:39.968Z,86.57
2023-05-14T11:28:40.016Z,84.26
2023-05-14T11:29:40.037Z,91.23
2023-05-14T11:30:40.059Z,91.31
2023-05-14T11:31:40.062Z,106.57
2023-05-14T11:32:40.118Z,117.47
2023-05-14T11:33:40.148Z,109.93
2023-05-14T11:34:40.086Z,99.72
2023-05-14T11:35:40.238Z,89.07
2023-05-14T11:36:40.171Z,97.08
2023-05-14T11:37:40.208Z,97.60
2023-05-14T11:38:40.248Z,87.68
2023-05-14T11:39:40.280Z,83.43
2023-05-14T11:40:40.292Z,71.25
2023-05-14T11:41:40.354Z,70.66
2023-05-14T11:42:40.397Z,78.12
2023-05-14T11:43:40.374Z,83.34
2023-05-14T11:44:40.423Z,75.37
2023-05-14T11:45:40.535Z,70.12
2023-05-14T11:46:40.598Z,66.45
2023-05-14T11:47:40.593Z,68.52
2023-05-14T11:48:40.649Z,78.09
2023-05-14T11:49:40.713Z,83.21
2023-05-14T11:50:40.730Z,71.32
2023-05-14T11:51:40.778Z,65.28
2023-05-14T11:52:40.810Z,50.87
2023-05-14T11:53:40.789Z,67.39
2023-05-14T11:54:40.866Z,80.95
2023-05-14T11:55:40.906Z,76.76
2023-05-14T11:56:40.920Z,71.35
2023-05-14T11:57:40.978Z,62.30
2023-05-14T11:58:40.991Z,64.49
2023-05-14T11:59:40.987Z,73.17
2023-05-14T12:00:41.047Z,83.03
2023-05-14T12:01:41.123Z,81.32
2023-05-14T12:02:41.236Z,85.56
2023-05-14T12:03:41.452Z,71.25
2023-05-14T12:04:41.263Z,58.27
2023-05-14T12:05:41.269Z,61.86
2023-05-14T12:06:41.391Z,67.62
2023-05-14T12:07:41.354Z,68.91
2023-05-14T12:08:41.365Z,59.29
2023-05-14T12:09:43.023Z,61.32
2023-05-14T12:10:41.408Z,72.30
2023-05-14T12:11:41.368Z,69.84
2023-05-14T12:12:41.387Z,55.84
2023-05-14T12:13:41.353Z,52.37
2023-05-14T12:14:41.358Z,56.93
2023-05-14T12:15:41.394Z,59.37
2023-05-14T12:16:41.752Z,60.24
2023-05-14T12:17:41.428Z,68.73
2023-05-14T12:18:41.393Z,72.79
2023-05-14T12:19:41.336Z,68.44
2023-05-14T12:20:41.314Z,70.62
2023-05-14T12:21:41.298Z,76.13
2023-05-14T12:22:41.656Z,85.63
2023-05-14T12:23:41.307Z,81.61
2023-05-14T12:24:41.313Z,85.98
2023-05-14T12:25:41.270Z,94.39
2023-05-14T12:26:41.265Z,96.07
2023-05-14T12:27:41.278Z,92.54
2023-05-14T12:28:41.274Z,89.03
2023-05-14T12:29:41.234Z,81.48
2023-05-14T12:30:41.290Z,71.29
2023-05-14T12:31:41.362Z,58.68
2023-05-14T12:32:41.407Z,61.03
2023-05-14T12:33:41.199Z,68.48
2023-05-14T12:34:41.216Z,85.04
2023-05-14T12:35:41.227Z,78.69
2023-05-14T12:36:41.190Z,75.40